createdAt,value
2023-03-26T00:00:11.130Z,54.67
2023-03-26T00:03:16.980Z,54.67
2023-03-26T00:06:25.592Z,54.45
2023-03-26T00:09:29.938Z,54.24
2023-03-26T00:12:32.585Z,54.52
2023-03-26T00:15:36.461Z,54.25
2023-03-26T00:18:40.463Z,56.46
2023-03-26T00:21:42.840Z,54.81
2023-03-26T00:24:48.441Z,55.01
2023-03-26T00:27:50.937Z,54.93
2023-03-26T00:31:05.623Z,54.00
2023-03-26T00:34:08.538Z,53.81
2023-03-26T00:37:12.577Z,53.62
2023-03-26T00:40:14.998Z,53.87
2023-03-26T00:43:19.382Z,54.22
2023-03-26T00:46:22.938Z,53.91
2023-03-26T00:49:26.794Z,55.53
2023-03-26T00:52:29.759Z,54.23
2023-03-26T00:55:32.362Z,55.85
2023-03-26T00:58:35.181Z,55.72
2023-03-26T01:01:37.877Z,54.52
2023-03-26T01:04:40.404Z,55.67
2023-03-26T01:07:44.716Z,55.21
2023-03-26T01:10:50.968Z,56.15
2023-03-26T01:14:04.792Z,55.49
2023-03-26T01:17:09.198Z,53.99
2023-03-26T01:20:19.360Z,54.25
2023-03-26T01:23:28.386Z,55.33
2023-03-26T01:26:48.135Z,54.15
2023-03-26T01:30:03.891Z,53.95
2023-03-26T01:33:18.726Z,53.87
2023-03-26T01:36:32.443Z,55.87
2023-03-26T01:39:49.165Z,54.28
2023-03-26T01:43:18.900Z,54.41
2023-03-26T01:46:23.821Z,54.44
2023-03-26T01:49:29.469Z,55.99
2023-03-26T01:52:32.252Z,55.33
2023-03-26T01:55:59.383Z,53.79
2023-03-26T01:59:13.355Z,54.58
2023-03-26T02:02:30.846Z,54.80
2023-03-26T02:05:37.573Z,54.43
2023-03-26T02:08:51.235Z,54.74
2023-03-26T02:11:54.944Z,53.75
2023-03-26T02:15:01.297Z,54.79
2023-03-26T02:18:04.196Z,56.04
2023-03-26T02:21:11.028Z,54.06
2023-03-26T02:24:13.907Z,54.50
2023-03-26T02:27:18.423Z,53.98
2023-03-26T02:30:29.940Z,53.86
2023-03-26T02:33:32.918Z,53.84
2023-03-26T02:36:36.154Z,54.46
2023-03-26T02:39:39.215Z,54.70
2023-03-26T02:42:42.650Z,54.24
2023-03-26T02:45:46.862Z,54.52
2023-03-26T02:48:52.742Z,54.59
2023-03-26T02:51:56.301Z,54.74
2023-03-26T02:55:00.418Z,55.05
2023-03-26T02:58:03.063Z,55.25
2023-03-26T03:01:06.093Z,55.39
2023-03-26T03:04:11.032Z,54.80
2023-03-26T03:07:15.054Z,54.90
2023-03-26T03:10:21.933Z,54.97
2023-03-26T03:13:26.655Z,56.24
2023-03-26T03:16:30.419Z,55.83
2023-03-26T03:19:33.125Z,57.67
2023-03-26T03:22:36.422Z,57.37
2023-03-26T03:25:41.102Z,57.85
2023-03-26T03:28:45.276Z,57.82
2023-03-26T03:31:49.028Z,58.20
2023-03-26T03:34:52.334Z,57.65
2023-03-26T03:37:54.738Z,56.80
2023-03-26T03:40:58.426Z,57.19
2023-03-26T03:44:01.812Z,57.87
2023-03-26T03:47:04.500Z,57.53
2023-03-26T03:50:07.678Z,57.87
2023-03-26T03:53:10.646Z,57.49
2023-03-26T03:56:14.787Z,55.82
2023-03-26T03:59:20.808Z,55.71
2023-03-26T04:02:26.721Z,55.91
2023-03-26T04:05:30.889Z,55.92
2023-03-26T04:08:34.027Z,56.16
2023-03-26T04:11:37.010Z,56.27
2023-03-26T04:14:40.653Z,56.45
2023-03-26T04:17:43.952Z,56.99
2023-03-26T04:20:46.830Z,57.78
2023-03-26T04:23:50.106Z,56.86
2023-03-26T04:26:53.557Z,58.37
2023-03-26T04:29:58.190Z,56.96
2023-03-26T04:33:04.252Z,56.74
2023-03-26T04:36:11.611Z,58.06
2023-03-26T04:39:14.204Z,58.77
2023-03-26T04:42:21.194Z,59.89
2023-03-26T04:45:24.353Z,57.13
2023-03-26T04:48:28.277Z,57.23
2023-03-26T04:51:38.418Z,57.34
2023-03-26T04:54:46.031Z,56.53
2023-03-26T04:57:55.697Z,57.00
2023-03-26T05:01:09.828Z,56.35
2023-03-26T05:04:14.448Z,56.20
2023-03-26T05:07:21.372Z,56.72
2023-03-26T05:10:23.934Z,55.38
2023-03-26T05:13:27.543Z,55.75
2023-03-26T05:16:31.885Z,55.17
2023-03-26T05:19:35.449Z,55.73
2023-03-26T05:22:38.625Z,55.24
2023-03-26T05:25:42.413Z,54.92
2023-03-26T05:28:45.904Z,55.33
2023-03-26T05:31:48.802Z,54.67
2023-03-26T05:34:51.432Z,57.11
2023-03-26T05:37:54.135Z,54.38
2023-03-26T05:41:06.271Z,55.58
2023-03-26T05:44:09.665Z,54.10
2023-03-26T05:47:12.105Z,55.16
2023-03-26T05:50:14.762Z,56.07
2023-03-26T05:53:18.995Z,52.77
2023-03-26T05:56:40.898Z,54.45
2023-03-26T05:59:45.534Z,51.86
2023-03-26T06:02:51.995Z,52.56
2023-03-26T06:06:00.812Z,53.33
2023-03-26T06:09:04.543Z,53.89
2023-03-26T06:12:09.464Z,53.44
2023-03-26T06:15:13.756Z,52.81
2023-03-26T06:18:17.784Z,53.11
2023-03-26T06:21:20.927Z,54.19
2023-03-26T06:24:24.261Z,52.54
2023-03-26T06:27:26.760Z,51.66
2023-03-26T06:30:29.948Z,52.93
2023-03-26T06:33:33.479Z,51.15
2023-03-26T06:36:36.973Z,50.04
2023-03-26T06:39:39.524Z,50.10
2023-03-26T06:43:08.783Z,50.19
2023-03-26T06:46:05.421Z,49.98
2023-03-26T06:49:08.796Z,49.33
2023-03-26T06:52:13.392Z,48.79
2023-03-26T06:55:16.553Z,50.68
2023-03-26T06:58:19.277Z,48.21
2023-03-26T07:01:22.472Z,46.74
2023-03-26T07:04:44.398Z,46.94
2023-03-26T07:07:57.195Z,46.08
2023-03-26T07:11:11.264Z,45.29
2023-03-26T07:14:18.035Z,48.61
2023-03-26T07:17:21.064Z,44.44
2023-03-26T07:20:24.508Z,44.72
2023-03-26T07:23:27.583Z,44.78
2023-03-26T07:26:40.370Z,43.68
2023-03-26T07:29:59.291Z,41.66
2023-03-26T07:33:10.188Z,41.29
2023-03-26T07:36:27.794Z,41.89
2023-03-26T07:39:45.208Z,41.36
2023-03-26T07:43:10.486Z,40.36
2023-03-26T07:46:14.420Z,40.29
2023-03-26T07:49:17.941Z,40.82
2023-03-26T07:52:24.329Z,40.72
2023-03-26T07:55:27.176Z,40.76
2023-03-26T07:58:56.235Z,40.91
2023-03-26T08:02:23.182Z,40.71
2023-03-26T08:05:37.722Z,40.92
2023-03-26T08:09:02.881Z,40.31
2023-03-26T08:12:33.983Z,40.97
2023-03-26T08:15:49.823Z,41.38
2023-03-26T08:19:06.213Z,40.14
2023-03-26T08:22:17.269Z,40.83
2023-03-26T08:25:27.636Z,39.69
2023-03-26T08:28:47.021Z,40.61
2023-03-26T08:31:50.716Z,41.09
2023-03-26T08:34:53.146Z,39.98
2023-03-26T08:37:55.870Z,40.91
2023-03-26T08:41:10.559Z,41.36
2023-03-26T08:44:41.793Z,45.66
2023-03-26T08:48:25.820Z,45.18
2023-03-26T08:52:06.096Z,45.21
2023-03-26T08:55:23.960Z,45.52
2023-03-26T08:58:57.252Z,46.47
2023-03-26T09:02:17.406Z,44.57
2023-03-26T09:05:46.637Z,43.98
2023-03-26T09:09:19.072Z,43.00
2023-03-26T09:12:33.849Z,41.63
2023-03-26T09:15:36.087Z,41.00
2023-03-26T09:19:10.995Z,41.36
2023-03-26T09:22:13.188Z,40.30
2023-03-26T09:25:25.315Z,39.49
2023-03-26T09:28:45.437Z,39.52
2023-03-26T09:31:48.003Z,39.59
2023-03-26T09:35:12.613Z,39.16
2023-03-26T09:38:45.480Z,39.86
2023-03-26T09:42:15.496Z,38.65
2023-03-26T09:45:18.013Z,38.70
2023-03-26T09:48:20.787Z,38.59
2023-03-26T09:51:33.263Z,38.46
2023-03-26T09:54:44.535Z,37.87
2023-03-26T09:58:25.021Z,36.02
2023-03-26T10:01:42.824Z,35.41
2023-03-26T10:05:05.011Z,33.82
2023-03-26T10:08:36.867Z,32.59
2023-03-26T10:12:31.629Z,32.74
2023-03-26T10:15:59.415Z,32.71
2023-03-26T10:19:31.651Z,33.97
2023-03-26T10:23:14.437Z,34.16
2023-03-26T10:27:12.854Z,34.56
2023-03-26T10:30:29.551Z,35.65
2023-03-26T10:34:01.310Z,36.63
2023-03-26T10:37:22.442Z,38.54
2023-03-26T10:41:05.091Z,41.85
2023-03-26T10:44:28.072Z,45.03
2023-03-26T10:47:55.132Z,48.66
2023-03-26T10:51:06.272Z,50.00
2023-03-26T10:54:15.049Z,49.53
2023-03-26T10:57:54.578Z,47.62
2023-03-26T11:01:06.133Z,44.54
2023-03-26T11:04:28.901Z,43.70
2023-03-26T11:07:53.823Z,42.84
2023-03-26T11:11:14.260Z,42.05
2023-03-26T11:14:34.756Z,41.57
2023-03-26T11:17:41.567Z,42.19
2023-03-26T11:20:57.637Z,42.83
2023-03-26T11:25:03.861Z,43.62
2023-03-26T11:28:15.974Z,42.85
2023-03-26T11:32:01.788Z,42.90
2023-03-26T11:35:14.867Z,42.34
2023-03-26T11:38:37.544Z,41.44
2023-03-26T11:41:40.790Z,42.10
2023-03-26T11:44:50.357Z,42.36
2023-03-26T11:47:59.727Z,41.08
2023-03-26T11:51:08.551Z,40.40
2023-03-26T11:54:12.744Z,38.20
2023-03-26T11:57:26.314Z,38.01
2023-03-26T12:00:30.271Z,37.63
2023-03-26T12:03:33.828Z,37.27
2023-03-26T12:06:36.215Z,36.86
2023-03-26T12:09:53.519Z,36.93
2023-03-26T12:12:59.113Z,36.38
2023-03-26T12:16:13.995Z,36.89
2023-03-26T12:19:20.108Z,36.63
2023-03-26T12:22:38.583Z,37.19
2023-03-26T12:25:40.930Z,36.93
2023-03-26T12:28:49.365Z,36.63
2023-03-26T12:32:02.962Z,36.69
2023-03-26T12:35:08.152Z,36.04
2023-03-26T12:38:22.037Z,35.46
2023-03-26T12:44:44.553Z,35.94
2023-03-26T12:45:06.878Z,35.59
2023-03-26T12:48:12.997Z,34.94
2023-03-26T12:51:24.937Z,34.85
2023-03-26T12:54:56.594Z,33.96
2023-03-26T12:58:26.070Z,34.88
2023-03-26T13:01:38.882Z,35.05
2023-03-26T13:05:05.096Z,33.56
2023-03-26T13:08:38.184Z,32.09
2023-03-26T13:11:41.570Z,32.38
2023-03-26T13:15:22.051Z,31.79
2023-03-26T13:18:43.591Z,31.71
2023-03-26T13:22:06.440Z,31.20
2023-03-26T13:25:30.273Z,30.97
2023-03-26T13:28:39.387Z,31.04
2023-03-26T13:31:49.498Z,31.30
2023-03-26T13:34:55.211Z,31.54
2023-03-26T13:38:23.761Z,31.66
2023-03-26T13:41:42.907Z,31.79
2023-03-26T13:44:52.873Z,31.61
2023-03-26T13:48:16.927Z,31.35
2023-03-26T13:51:28.916Z,30.26
2023-03-26T13:54:44.786Z,30.23
2023-03-26T13:58:03.232Z,30.34
2023-03-26T14:01:19.528Z,31.18
2023-03-26T14:04:25.079Z,31.31
2023-03-26T14:07:34.712Z,31.91
2023-03-26T14:10:43.054Z,31.73
2023-03-26T14:14:04.075Z,31.07
2023-03-26T14:17:25.620Z,30.74
2023-03-26T14:20:34.053Z,30.30
2023-03-26T14:24:11.608Z,30.17
2023-03-26T14:27:29.037Z,30.55
2023-03-26T14:30:48.219Z,30.25
2023-03-26T14:34:04.822Z,30.81
2023-03-26T14:37:27.908Z,30.00
2023-03-26T14:40:33.797Z,29.91
2023-03-26T14:43:48.922Z,29.67
2023-03-26T14:47:07.520Z,29.39
2023-03-26T14:50:20.257Z,28.91
2023-03-26T14:53:33.519Z,28.42
2023-03-26T14:56:39.224Z,27.11
2023-03-26T15:00:07.258Z,27.50
2023-03-26T15:03:26.002Z,27.40
2023-03-26T15:06:47.186Z,27.51
2023-03-26T15:10:47.394Z,27.47
2023-03-26T15:13:56.253Z,27.57
2023-03-26T15:17:30.691Z,27.68
2023-03-26T15:20:56.526Z,28.28
2023-03-26T15:24:24.493Z,28.41
2023-03-26T15:27:32.880Z,28.74
2023-03-26T15:31:10.731Z,28.90
2023-03-26T15:34:20.165Z,29.17
2023-03-26T15:37:27.384Z,29.55
2023-03-26T15:40:48.663Z,29.74
2023-03-26T15:47:27.287Z,30.29
2023-03-26T15:50:45.797Z,30.40
2023-03-26T15:53:57.633Z,30.72
2023-03-26T15:57:16.982Z,31.01
2023-03-26T16:00:25.905Z,31.93
2023-03-26T16:03:53.700Z,32.10
2023-03-26T16:07:03.673Z,32.57
2023-03-26T16:10:20.401Z,32.69
2023-03-26T16:13:26.582Z,32.72
2023-03-26T16:16:59.219Z,32.99
2023-03-26T16:20:35.679Z,33.26
2023-03-26T16:23:47.528Z,33.60
2023-03-26T16:27:10.644Z,33.82
2023-03-26T16:30:19.490Z,33.70
2023-03-26T16:33:37.551Z,33.84
2023-03-26T16:36:45.003Z,34.17
2023-03-26T16:39:48.228Z,34.62
2023-03-26T16:43:10.395Z,34.26
2023-03-26T16:46:29.529Z,34.27
2023-03-26T16:49:46.849Z,35.06
2023-03-26T16:53:29.907Z,34.29
2023-03-26T16:57:10.190Z,34.47
2023-03-26T17:00:44.958Z,34.29
2023-03-26T17:04:17.293Z,35.02
2023-03-26T17:07:42.060Z,35.24
2023-03-26T17:11:03.060Z,35.32
2023-03-26T17:18:00.812Z,36.33
2023-03-26T17:21:18.540Z,36.43
2023-03-26T17:24:41.835Z,36.51
2023-03-26T17:28:27.496Z,36.87
2023-03-26T17:31:39.216Z,36.90
2023-03-26T17:34:50.940Z,37.05
2023-03-26T17:37:53.828Z,37.98
2023-03-26T17:40:58.874Z,37.23
2023-03-26T17:44:26.120Z,38.51
2023-03-26T17:47:58.548Z,38.44
2023-03-26T17:51:27.978Z,39.34
2023-03-26T17:54:39.399Z,38.22
2023-03-26T17:57:46.502Z,37.98
2023-03-26T18:01:07.567Z,37.62
2023-03-26T18:04:21.573Z,37.93
2023-03-26T18:08:08.196Z,38.16
2023-03-26T18:11:50.881Z,39.62
2023-03-26T18:15:02.087Z,39.34
2023-03-26T18:18:16.503Z,38.88
2023-03-26T18:21:24.950Z,39.83
2023-03-26T18:24:31.453Z,38.67
2023-03-26T18:27:38.880Z,40.59
2023-03-26T18:30:48.742Z,38.86
2023-03-26T18:33:59.046Z,39.48
2023-03-26T18:37:11.513Z,38.29
2023-03-26T18:40:19.168Z,38.47
2023-03-26T18:43:34.384Z,40.25
2023-03-26T18:46:37.305Z,38.90
2023-03-26T18:49:46.160Z,40.13
2023-03-26T18:52:48.853Z,38.68
2023-03-26T18:55:52.415Z,39.92
2023-03-26T18:58:58.010Z,39.00
2023-03-26T19:02:05.914Z,39.27
2023-03-26T19:05:14.241Z,39.02
2023-03-26T19:08:17.631Z,39.30
2023-03-26T19:11:20.156Z,39.37
2023-03-26T19:14:25.277Z,39.34
2023-03-26T19:17:31.772Z,39.65
2023-03-26T19:20:43.866Z,42.70
2023-03-26T19:23:47.413Z,42.34
2023-03-26T19:26:50.901Z,43.02
2023-03-26T19:29:53.541Z,42.63
2023-03-26T19:33:13.229Z,43.49
2023-03-26T19:36:19.505Z,42.95
2023-03-26T19:39:36.469Z,41.34
2023-03-26T19:42:43.818Z,41.72
2023-03-26T19:45:59.352Z,42.95
2023-03-26T19:49:04.355Z,43.94
2023-03-26T19:52:15.999Z,45.34
2023-03-26T19:55:22.503Z,43.57
2023-03-26T19:58:26.588Z,44.07
2023-03-26T20:01:30.420Z,42.58
2023-03-26T20:04:33.108Z,43.14
2023-03-26T20:07:39.330Z,42.60
2023-03-26T20:10:43.109Z,44.72
2023-03-26T20:13:46.414Z,44.25
2023-03-26T20:16:49.396Z,44.24
2023-03-26T20:19:54.281Z,44.55
2023-03-26T20:22:56.948Z,43.79
2023-03-26T20:25:59.327Z,44.92
2023-03-26T20:29:03.075Z,43.72
2023-03-26T20:32:18.407Z,44.73
2023-03-26T20:35:36.285Z,42.63
2023-03-26T20:38:40.144Z,42.56
2023-03-26T20:41:50.149Z,43.75
2023-03-26T20:44:52.502Z,43.20
2023-03-26T20:47:55.130Z,44.38
2023-03-26T20:50:57.585Z,44.29
2023-03-26T20:54:00.672Z,42.65
2023-03-26T20:57:03.398Z,42.59
2023-03-26T21:00:19.244Z,42.76
2023-03-26T21:03:21.597Z,42.93
2023-03-26T21:06:24.221Z,44.19
2023-03-26T21:09:34.273Z,43.30
2023-03-26T21:12:43.383Z,43.47
2023-03-26T21:15:46.124Z,43.79
2023-03-26T21:18:49.024Z,43.96
2023-03-26T21:22:20.749Z,44.29
2023-03-26T21:25:39.326Z,45.27
2023-03-26T21:28:47.595Z,44.86
2023-03-26T21:31:53.459Z,45.00
2023-03-26T21:34:59.227Z,45.07
2023-03-26T21:38:04.502Z,45.79
2023-03-26T21:41:07.763Z,47.53
2023-03-26T21:44:10.937Z,45.95
2023-03-26T21:47:13.708Z,46.34
2023-03-26T21:50:19.376Z,48.69
2023-03-26T21:53:22.611Z,50.61
2023-03-26T21:56:36.478Z,51.14
2023-03-26T21:59:46.325Z,52.87
2023-03-26T22:03:12.376Z,52.81
2023-03-26T22:06:51.361Z,53.33
2023-03-26T22:09:53.977Z,53.64
2023-03-26T22:12:56.889Z,54.69
2023-03-26T22:15:59.484Z,54.52
2023-03-26T22:19:02.221Z,54.66
2023-03-26T22:22:05.398Z,56.75
2023-03-26T22:25:10.387Z,55.10
2023-03-26T22:28:12.997Z,55.03
2023-03-26T22:31:16.678Z,55.55
2023-03-26T22:34:19.849Z,55.54
2023-03-26T22:37:23.473Z,57.76
2023-03-26T22:40:26.521Z,57.67
2023-03-26T22:43:29.454Z,59.40
2023-03-26T22:46:31.840Z,59.24
2023-03-26T22:49:34.624Z,60.05
2023-03-26T22:52:37.702Z,61.12
2023-03-26T22:55:40.520Z,61.78
2023-03-26T22:58:42.903Z,62.53
2023-03-26T23:01:45.907Z,63.33
2023-03-26T23:04:48.847Z,63.37
2023-03-26T23:07:52.282Z,63.90
2023-03-26T23:10:54.887Z,64.02
2023-03-26T23:13:57.721Z,65.51
2023-03-26T23:17:00.520Z,65.34
2023-03-26T23:20:13.705Z,66.87
2023-03-26T23:23:16.097Z,68.34
2023-03-26T23:26:18.943Z,68.50
2023-03-26T23:29:21.556Z,69.30
2023-03-26T23:32:28.118Z,69.18
2023-03-26T23:35:30.561Z,69.22
2023-03-26T23:38:43.640Z,69.46
2023-03-26T23:41:46.663Z,69.96
2023-03-26T23:44:49.366Z,71.65
2023-03-26T23:47:51.782Z,71.25
2023-03-26T23:51:02.989Z,71.73
2023-03-26T23:54:27.130Z,72.88
2023-03-26T23:57:30.598Z,74.05
